sensor_id;sensor_type;location;lat;lon;timestamp;P1;durP1;ratioP1;P2;durP2;ratioP2
50681;SDS011;36779;52.168;20.878;2023-08-30T00:00:54;21.80;;;11.90;;
50681;SDS011;36779;52.168;20.878;2023-08-30T00:03:37;21.30;;;12.40;;
50681;SDS011;36779;52.168;20.878;2023-08-30T00:06:09;22.10;;;12.90;;
50681;SDS011;36779;52.168;20.878;2023-08-30T00:08:41;18.90;;;11.60;;
50681;SDS011;36779;52.168;20.878;2023-08-30T00:11:17;24.90;;;13.00;;
50681;SDS011;36779;52.168;20.878;2023-08-30T00:13:49;24.00;;;13.90;;
50681;SDS011;36779;52.168;20.878;2023-08-30T00:16:21;23.10;;;12.80;;
50681;SDS011;36779;52.168;20.878;2023-08-30T00:18:57;20.70;;;12.30;;
50681;SDS011;36779;52.168;20.878;2023-08-30T00:21:30;20.80;;;11.40;;
50681;SDS011;36779;52.168;20.878;2023-08-30T00:24:02;23.20;;;13.10;;
50681;SDS011;36779;52.168;20.878;2023-08-30T00:26:35;22.40;;;13.30;;
50681;SDS011;36779;52.168;20.878;2023-08-30T00:29:08;24.80;;;14.10;;
50681;SDS011;36779;52.168;20.878;2023-08-30T00:31:41;24.40;;;12.70;;
50681;SDS011;36779;52.168;20.878;2023-08-30T00:34:17;24.50;;;13.80;;
50681;SDS011;36779;52.168;20.878;2023-08-30T00:36:50;24.60;;;14.20;;
50681;SDS011;36779;52.168;20.878;2023-08-30T00:39:25;21.90;;;14.00;;
50681;SDS011;36779;52.168;20.878;2023-08-30T00:41:57;27.50;;;14.80;;
50681;SDS011;36779;52.168;20.878;2023-08-30T00:44:36;26.70;;;15.20;;
50681;SDS011;36779;52.168;20.878;2023-08-30T00:47:10;22.20;;;12.50;;
50681;SDS011;36779;52.168;20.878;2023-08-30T00:49:45;27.00;;;14.40;;
50681;SDS011;36779;52.168;20.878;2023-08-30T00:52:19;28.00;;;13.50;;
50681;SDS011;36779;52.168;20.878;2023-08-30T00:54:52;25.50;;;13.80;;
50681;SDS011;36779;52.168;20.878;2023-08-30T00:57:24;26.30;;;14.00;;
50681;SDS011;36779;52.168;20.878;2023-08-30T00:59:56;30.40;;;13.30;;
50681;SDS011;36779;52.168;20.878;2023-08-30T01:02:32;25.40;;;13.30;;
50681;SDS011;36779;52.168;20.878;2023-08-30T01:05:05;23.50;;;13.20;;
50681;SDS011;36779;52.168;20.878;2023-08-30T01:07:39;22.50;;;12.10;;
50681;SDS011;36779;52.168;20.878;2023-08-30T01:10:14;21.50;;;12.80;;
50681;SDS011;36779;52.168;20.878;2023-08-30T01:12:47;21.00;;;12.30;;
50681;SDS011;36779;52.168;20.878;2023-08-30T01:15:23;23.20;;;13.50;;
50681;SDS011;36779;52.168;20.878;2023-08-30T01:17:57;25.50;;;12.50;;
50681;SDS011;36779;52.168;20.878;2023-08-30T01:20:37;22.00;;;13.40;;
50681;SDS011;36779;52.168;20.878;2023-08-30T01:23:20;20.60;;;12.00;;
50681;SDS011;36779;52.168;20.878;2023-08-30T01:26:02;22.40;;;11.80;;
50681;SDS011;36779;52.168;20.878;2023-08-30T01:28:38;24.20;;;13.20;;
50681;SDS011;36779;52.168;20.878;2023-08-30T01:31:16;24.80;;;13.60;;
50681;SDS011;36779;52.168;20.878;2023-08-30T01:33:52;26.00;;;13.20;;
50681;SDS011;36779;52.168;20.878;2023-08-30T01:36:26;25.40;;;13.70;;
50681;SDS011;36779;52.168;20.878;2023-08-30T01:39:00;25.50;;;13.30;;
50681;SDS011;36779;52.168;20.878;2023-08-30T01:41:34;23.90;;;12.30;;
50681;SDS011;36779;52.168;20.878;2023-08-30T01:44:07;26.90;;;12.70;;
50681;SDS011;36779;52.168;20.878;2023-08-30T01:46:41;23.50;;;12.20;;
50681;SDS011;36779;52.168;20.878;2023-08-30T01:49:17;27.40;;;13.30;;
50681;SDS011;36779;52.168;20.878;2023-08-30T01:51:50;25.50;;;14.80;;
50681;SDS011;36779;52.168;20.878;2023-08-30T01:54:26;25.20;;;13.10;;
50681;SDS011;36779;52.168;20.878;2023-08-30T01:57:00;25.70;;;12.50;;
50681;SDS011;36779;52.168;20.878;2023-08-30T01:59:33;22.40;;;12.60;;
50681;SDS011;36779;52.168;20.878;2023-08-30T02:02:05;21.80;;;12.10;;
50681;SDS011;36779;52.168;20.878;2023-08-30T02:04:38;22.40;;;13.30;;
50681;SDS011;36779;52.168;20.878;2023-08-30T02:07:13;26.20;;;13.70;;
50681;SDS011;36779;52.168;20.878;2023-08-30T02:09:54;24.40;;;13.00;;
50681;SDS011;36779;52.168;20.878;2023-08-30T02:12:31;23.20;;;12.80;;
50681;SDS011;36779;52.168;20.878;2023-08-30T02:15:12;24.30;;;12.90;;
50681;SDS011;36779;52.168;20.878;2023-08-30T02:17:46;23.50;;;11.60;;
50681;SDS011;36779;52.168;20.878;2023-08-30T02:20:19;21.90;;;11.70;;
50681;SDS011;36779;52.168;20.878;2023-08-30T02:22:53;24.60;;;12.40;;
50681;SDS011;36779;52.168;20.878;2023-08-30T02:25:39;24.60;;;12.40;;
50681;SDS011;36779;52.168;20.878;2023-08-30T02:28:13;23.70;;;11.80;;
50681;SDS011;36779;52.168;20.878;2023-08-30T02:30:46;23.40;;;12.30;;
50681;SDS011;36779;52.168;20.878;2023-08-30T02:33:18;26.10;;;13.10;;
50681;SDS011;36779;52.168;20.878;2023-08-30T02:35:50;25.30;;;13.00;;
50681;SDS011;36779;52.168;20.878;2023-08-30T02:38:25;23.20;;;12.20;;
50681;SDS011;36779;52.168;20.878;2023-08-30T02:40:57;26.00;;;12.90;;
50681;SDS011;36779;52.168;20.878;2023-08-30T02:43:30;22.40;;;11.80;;
50681;SDS011;36779;52.168;20.878;2023-08-30T02:46:03;27.20;;;13.00;;
50681;SDS011;36779;52.168;20.878;2023-08-30T02:48:45;26.40;;;12.90;;
50681;SDS011;36779;52.168;20.878;2023-08-30T02:51:18;24.70;;;13.30;;
50681;SDS011;36779;52.168;20.878;2023-08-30T02:53:50;23.90;;;12.30;;
50681;SDS011;36779;52.168;20.878;2023-08-30T02:56:22;24.80;;;12.60;;
50681;SDS011;36779;52.168;20.878;2023-08-30T02:58:55;22.60;;;11.50;;
50681;SDS011;36779;52.168;20.878;2023-08-30T03:01:27;25.40;;;12.70;;
50681;SDS011;36779;52.168;20.878;2023-08-30T03:03:59;24.90;;;12.80;;
50681;SDS011;36779;52.168;20.878;2023-08-30T03:06:34;21.80;;;12.20;;
50681;SDS011;36779;52.168;20.878;2023-08-30T03:09:06;24.90;;;13.30;;
50681;SDS011;36779;52.168;20.878;2023-08-30T03:11:39;25.80;;;13.60;;
50681;SDS011;36779;52.168;20.878;2023-08-30T03:14:11;25.20;;;12.20;;
50681;SDS011;36779;52.168;20.878;2023-08-30T03:16:45;24.20;;;12.70;;
50681;SDS011;36779;52.168;20.878;2023-08-30T03:19:17;25.40;;;12.50;;
50681;SDS011;36779;52.168;20.878;2023-08-30T03:21:53;27.90;;;12.40;;
50681;SDS011;36779;52.168;20.878;2023-08-30T03:24:27;22.50;;;12.70;;
50681;SDS011;36779;52.168;20.878;2023-08-30T03:26:59;29.60;;;13.20;;
50681;SDS011;36779;52.168;20.878;2023-08-30T03:29:35;22.70;;;11.60;;
50681;SDS011;36779;52.168;20.878;2023-08-30T03:32:09;18.90;;;10.90;;
50681;SDS011;36779;52.168;20.878;2023-08-30T03:34:46;24.10;;;11.90;;
50681;SDS011;36779;52.168;20.878;2023-08-30T03:37:20;23.60;;;12.50;;
50681;SDS011;36779;52.168;20.878;2023-08-30T03:39:52;25.30;;;11.70;;
50681;SDS011;36779;52.168;20.878;2023-08-30T03:42:24;25.80;;;11.90;;
50681;SDS011;36779;52.168;20.878;2023-08-30T03:44:57;26.50;;;12.50;;
50681;SDS011;36779;52.168;20.878;2023-08-30T03:47:31;24.70;;;12.20;;
50681;SDS011;36779;52.168;20.878;2023-08-30T03:50:03;26.00;;;12.50;;
50681;SDS011;36779;52.168;20.878;2023-08-30T03:52:38;24.20;;;12.30;;
50681;SDS011;36779;52.168;20.878;2023-08-30T03:55:10;27.30;;;13.10;;
50681;SDS011;36779;52.168;20.878;2023-08-30T03:57:42;25.70;;;12.40;;
50681;SDS011;36779;52.168;20.878;2023-08-30T04:00:15;29.60;;;12.40;;
50681;SDS011;36779;52.168;20.878;2023-08-30T04:02:48;27.80;;;12.50;;
50681;SDS011;36779;52.168;20.878;2023-08-30T04:05:21;25.90;;;12.20;;
50681;SDS011;36779;52.168;20.878;2023-08-30T04:07:57;24.00;;;11.50;;
50681;SDS011;36779;52.168;20.878;2023-08-30T04:10:38;23.90;;;11.00;;
50681;SDS011;36779;52.168;20.878;2023-08-30T04:13:12;25.90;;;13.30;;
50681;SDS011;36779;52.168;20.878;2023-08-30T04:15:46;24.70;;;11.90;;
50681;SDS011;36779;52.168;20.878;2023-08-30T04:18:19;23.50;;;13.60;;
50681;SDS011;36779;52.168;20.878;2023-08-30T04:20:53;24.70;;;11.90;;
50681;SDS011;36779;52.168;20.878;2023-08-30T04:23:27;23.40;;;12.00;;
50681;SDS011;36779;52.168;20.878;2023-08-30T04:25:59;26.30;;;12.70;;
50681;SDS011;36779;52.168;20.878;2023-08-30T04:28:32;27.40;;;12.40;;
50681;SDS011;36779;52.168;20.878;2023-08-30T04:31:07;25.90;;;12.40;;
50681;SDS011;36779;52.168;20.878;2023-08-30T04:33:39;26.80;;;12.90;;
50681;SDS011;36779;52.168;20.878;2023-08-30T04:36:12;26.30;;;12.80;;
50681;SDS011;36779;52.168;20.878;2023-08-30T04:38:45;27.90;;;13.40;;
50681;SDS011;36779;52.168;20.878;2023-08-30T04:41:32;24.60;;;12.40;;
50681;SDS011;36779;52.168;20.878;2023-08-30T04:44:05;24.80;;;12.40;;
50681;SDS011;36779;52.168;20.878;2023-08-30T04:46:40;23.20;;;11.40;;
50681;SDS011;36779;52.168;20.878;2023-08-30T04:49:18;29.30;;;13.90;;
50681;SDS011;36779;52.168;20.878;2023-08-30T04:51:53;24.20;;;11.50;;
50681;SDS011;36779;52.168;20.878;2023-08-30T04:54:26;26.00;;;12.30;;
50681;SDS011;36779;52.168;20.878;2023-08-30T04:56:58;30.60;;;13.80;;
50681;SDS011;36779;52.168;20.878;2023-08-30T04:59:32;32.00;;;13.10;;
50681;SDS011;36779;52.168;20.878;2023-08-30T05:02:09;25.40;;;13.20;;
50681;SDS011;36779;52.168;20.878;2023-08-30T05:04:49;30.00;;;13.50;;
50681;SDS011;36779;52.168;20.878;2023-08-30T05:07:21;25.50;;;12.90;;
50681;SDS011;36779;52.168;20.878;2023-08-30T05:09:53;28.30;;;12.80;;
50681;SDS011;36779;52.168;20.878;2023-08-30T05:12:28;26.40;;;11.60;;
50681;SDS011;36779;52.168;20.878;2023-08-30T05:15:05;28.70;;;12.30;;
50681;SDS011;36779;52.168;20.878;2023-08-30T05:17:38;23.10;;;11.90;;
50681;SDS011;36779;52.168;20.878;2023-08-30T05:20:12;25.50;;;11.50;;
50681;SDS011;36779;52.168;20.878;2023-08-30T05:22:45;25.90;;;12.40;;
50681;SDS011;36779;52.168;20.878;2023-08-30T05:25:20;27.30;;;12.40;;
50681;SDS011;36779;52.168;20.878;2023-08-30T05:27:55;24.70;;;12.20;;
50681;SDS011;36779;52.168;20.878;2023-08-30T05:30:28;27.70;;;13.10;;
50681;SDS011;36779;52.168;20.878;2023-08-30T05:33:01;23.20;;;11.10;;
50681;SDS011;36779;52.168;20.878;2023-08-30T05:35:57;22.60;;;11.00;;
50681;SDS011;36779;52.168;20.878;2023-08-30T05:38:40;19.80;;;9.20;;
50681;SDS011;36779;52.168;20.878;2023-08-30T05:41:26;22.60;;;9.20;;
50681;SDS011;36779;52.168;20.878;2023-08-30T05:43:58;26.40;;;11.10;;
50681;SDS011;36779;52.168;20.878;2023-08-30T05:46:30;22.00;;;9.70;;
50681;SDS011;36779;52.168;20.878;2023-08-30T05:49:02;19.90;;;10.40;;
50681;SDS011;36779;52.168;20.878;2023-08-30T05:51:35;22.70;;;10.40;;
50681;SDS011;36779;52.168;20.878;2023-08-30T05:54:07;20.50;;;10.30;;
50681;SDS011;36779;52.168;20.878;2023-08-30T05:56:39;19.50;;;9.30;;
50681;SDS011;36779;52.168;20.878;2023-08-30T05:59:13;28.10;;;11.80;;
50681;SDS011;36779;52.168;20.878;2023-08-30T06:01:48;24.60;;;11.20;;
50681;SDS011;36779;52.168;20.878;2023-08-30T06:04:20;16.40;;;8.20;;
50681;SDS011;36779;52.168;20.878;2023-08-30T06:06:58;21.80;;;10.10;;
50681;SDS011;36779;52.168;20.878;2023-08-30T06:09:31;14.20;;;7.90;;
50681;SDS011;36779;52.168;20.878;2023-08-30T06:12:04;18.80;;;8.50;;
50681;SDS011;36779;52.168;20.878;2023-08-30T06:14:39;20.60;;;9.10;;
50681;SDS011;36779;52.168;20.878;2023-08-30T06:17:14;17.20;;;8.80;;
50681;SDS011;36779;52.168;20.878;2023-08-30T06:19:46;17.00;;;8.70;;
50681;SDS011;36779;52.168;20.878;2023-08-30T06:22:20;17.70;;;7.90;;
50681;SDS011;36779;52.168;20.878;2023-08-30T06:24:52;17.60;;;7.70;;
50681;SDS011;36779;52.168;20.878;2023-08-30T06:27:25;18.60;;;8.40;;
50681;SDS011;36779;52.168;20.878;2023-08-30T06:29:57;19.60;;;8.70;;
50681;SDS011;36779;52.168;20.878;2023-08-30T06:32:29;20.90;;;9.20;;
50681;SDS011;36779;52.168;20.878;2023-08-30T06:35:02;19.50;;;10.00;;
50681;SDS011;36779;52.168;20.878;2023-08-30T06:37:35;20.40;;;9.80;;
50681;SDS011;36779;52.168;20.878;2023-08-30T06:40:08;16.90;;;9.10;;
50681;SDS011;36779;52.168;20.878;2023-08-30T06:42:41;18.60;;;7.70;;
50681;SDS011;36779;52.168;20.878;2023-08-30T06:45:16;16.90;;;7.60;;
50681;SDS011;36779;52.168;20.878;2023-08-30T06:47:49;14.20;;;6.90;;
50681;SDS011;36779;52.168;20.878;2023-08-30T06:50:21;17.20;;;7.60;;
50681;SDS011;36779;52.168;20.878;2023-08-30T06:52:57;18.20;;;8.10;;
50681;SDS011;36779;52.168;20.878;2023-08-30T06:55:29;20.20;;;8.70;;
50681;SDS011;36779;52.168;20.878;2023-08-30T06:58:05;16.40;;;8.20;;
50681;SDS011;36779;52.168;20.878;2023-08-30T07:00:40;17.20;;;8.60;;
50681;SDS011;36779;52.168;20.878;2023-08-30T07:03:15;19.40;;;9.00;;
50681;SDS011;36779;52.168;20.878;2023-08-30T07:05:47;21.30;;;9.70;;
50681;SDS011;36779;52.168;20.878;2023-08-30T07:08:20;22.50;;;10.00;;
50681;SDS011;36779;52.168;20.878;2023-08-30T07:10:52;16.90;;;7.40;;
50681;SDS011;36779;52.168;20.878;2023-08-30T07:13:25;17.20;;;8.30;;
50681;SDS011;36779;52.168;20.878;2023-08-30T07:15:57;22.40;;;9.00;;
50681;SDS011;36779;52.168;20.878;2023-08-30T07:18:30;18.80;;;9.20;;
50681;SDS011;36779;52.168;20.878;2023-08-30T07:21:03;23.40;;;11.00;;
50681;SDS011;36779;52.168;20.878;2023-08-30T07:23:35;23.90;;;10.40;;
50681;SDS011;36779;52.168;20.878;2023-08-30T07:26:08;24.20;;;11.20;;
50681;SDS011;36779;52.168;20.878;2023-08-30T07:28:40;22.40;;;10.00;;
50681;SDS011;36779;52.168;20.878;2023-08-30T07:31:14;22.40;;;10.80;;
50681;SDS011;36779;52.168;20.878;2023-08-30T07:33:47;20.00;;;9.80;;
50681;SDS011;36779;52.168;20.878;2023-08-30T07:36:19;23.60;;;9.40;;
50681;SDS011;36779;52.168;20.878;2023-08-30T07:39:05;22.90;;;11.00;;
50681;SDS011;36779;52.168;20.878;2023-08-30T07:41:38;21.60;;;9.80;;
50681;SDS011;36779;52.168;20.878;2023-08-30T07:44:11;22.10;;;10.40;;
50681;SDS011;36779;52.168;20.878;2023-08-30T07:46:43;25.10;;;9.60;;
50681;SDS011;36779;52.168;20.878;2023-08-30T07:49:16;21.40;;;9.40;;
50681;SDS011;36779;52.168;20.878;2023-08-30T07:51:48;23.00;;;10.70;;
50681;SDS011;36779;52.168;20.878;2023-08-30T07:54:20;21.10;;;8.70;;
50681;SDS011;36779;52.168;20.878;2023-08-30T07:56:53;16.20;;;9.00;;
50681;SDS011;36779;52.168;20.878;2023-08-30T07:59:25;19.40;;;8.50;;
50681;SDS011;36779;52.168;20.878;2023-08-30T08:01:58;22.80;;;9.40;;
50681;SDS011;36779;52.168;20.878;2023-08-30T08:04:30;22.30;;;9.60;;
50681;SDS011;36779;52.168;20.878;2023-08-30T08:07:03;17.40;;;8.70;;
50681;SDS011;36779;52.168;20.878;2023-08-30T08:09:35;15.10;;;7.50;;
50681;SDS011;36779;52.168;20.878;2023-08-30T08:12:08;12.90;;;6.30;;
50681;SDS011;36779;52.168;20.878;2023-08-30T08:14:42;17.30;;;7.40;;
50681;SDS011;36779;52.168;20.878;2023-08-30T08:17:15;18.30;;;8.40;;
50681;SDS011;36779;52.168;20.878;2023-08-30T08:19:49;16.40;;;7.00;;
50681;SDS011;36779;52.168;20.878;2023-08-30T08:22:21;19.00;;;8.60;;
50681;SDS011;36779;52.168;20.878;2023-08-30T08:24:55;15.70;;;7.60;;
50681;SDS011;36779;52.168;20.878;2023-08-30T08:27:29;21.00;;;8.10;;
50681;SDS011;36779;52.168;20.878;2023-08-30T08:30:02;18.00;;;7.40;;
50681;SDS011;36779;52.168;20.878;2023-08-30T08:32:35;13.40;;;6.50;;
50681;SDS011;36779;52.168;20.878;2023-08-30T08:35:08;12.00;;;5.80;;
50681;SDS011;36779;52.168;20.878;2023-08-30T08:37:43;14.60;;;6.90;;
50681;SDS011;36779;52.168;20.878;2023-08-30T08:40:18;13.00;;;6.80;;
50681;SDS011;36779;52.168;20.878;2023-08-30T08:43:17;10.60;;;5.20;;
50681;SDS011;36779;52.168;20.878;2023-08-30T08:45:50;11.00;;;5.60;;
50681;SDS011;36779;52.168;20.878;2023-08-30T08:48:22;9.80;;;4.60;;
50681;SDS011;36779;52.168;20.878;2023-08-30T08:50:56;10.10;;;5.20;;
50681;SDS011;36779;52.168;20.878;2023-08-30T08:53:30;12.10;;;6.20;;
50681;SDS011;36779;52.168;20.878;2023-08-30T08:56:05;12.00;;;5.90;;
50681;SDS011;36779;52.168;20.878;2023-08-30T08:58:39;14.50;;;7.20;;
50681;SDS011;36779;52.168;20.878;2023-08-30T09:01:15;13.30;;;6.30;;
50681;SDS011;36779;52.168;20.878;2023-08-30T09:04:05;16.10;;;6.90;;
50681;SDS011;36779;52.168;20.878;2023-08-30T09:09:32;13.80;;;6.80;;
50681;SDS011;36779;52.168;20.878;2023-08-30T09:12:07;13.20;;;7.10;;
50681;SDS011;36779;52.168;20.878;2023-08-30T09:14:59;11.90;;;7.10;;
50681;SDS011;36779;52.168;20.878;2023-08-30T09:17:36;12.60;;;6.50;;
50681;SDS011;36779;52.168;20.878;2023-08-30T09:20:12;11.20;;;5.90;;
50681;SDS011;36779;52.168;20.878;2023-08-30T09:22:47;13.50;;;6.50;;
50681;SDS011;36779;52.168;20.878;2023-08-30T09:25:24;8.70;;;5.40;;
50681;SDS011;36779;52.168;20.878;2023-08-30T09:28:00;10.60;;;5.80;;
50681;SDS011;36779;52.168;20.878;2023-08-30T09:30:33;13.00;;;5.40;;
50681;SDS011;36779;52.168;20.878;2023-08-30T09:33:06;12.30;;;5.70;;
50681;SDS011;36779;52.168;20.878;2023-08-30T09:35:45;13.60;;;6.40;;
50681;SDS011;36779;52.168;20.878;2023-08-30T09:38:17;12.80;;;5.90;;
50681;SDS011;36779;52.168;20.878;2023-08-30T09:40:50;15.50;;;7.40;;
50681;SDS011;36779;52.168;20.878;2023-08-30T09:43:25;13.30;;;6.90;;
50681;SDS011;36779;52.168;20.878;2023-08-30T09:45:58;12.50;;;6.70;;
50681;SDS011;36779;52.168;20.878;2023-08-30T09:48:33;13.70;;;6.90;;
50681;SDS011;36779;52.168;20.878;2023-08-30T09:51:08;13.80;;;7.70;;
50681;SDS011;36779;52.168;20.878;2023-08-30T09:53:42;12.20;;;6.50;;
50681;SDS011;36779;52.168;20.878;2023-08-30T09:56:34;10.60;;;6.30;;
50681;SDS011;36779;52.168;20.878;2023-08-30T09:59:07;13.50;;;6.00;;
50681;SDS011;36779;52.168;20.878;2023-08-30T10:01:42;12.20;;;5.70;;
50681;SDS011;36779;52.168;20.878;2023-08-30T10:04:17;10.00;;;5.50;;
50681;SDS011;36779;52.168;20.878;2023-08-30T10:06:51;8.10;;;4.70;;
50681;SDS011;36779;52.168;20.878;2023-08-30T10:09:23;9.10;;;4.70;;
50681;SDS011;36779;52.168;20.878;2023-08-30T10:11:57;12.80;;;5.80;;
50681;SDS011;36779;52.168;20.878;2023-08-30T10:17:05;10.90;;;5.00;;
50681;SDS011;36779;52.168;20.878;2023-08-30T10:19:40;9.80;;;5.60;;
50681;SDS011;36779;52.168;20.878;2023-08-30T10:22:15;13.00;;;6.40;;
50681;SDS011;36779;52.168;20.878;2023-08-30T10:24:49;10.30;;;5.50;;
50681;SDS011;36779;52.168;20.878;2023-08-30T10:27:31;10.80;;;5.40;;
50681;SDS011;36779;52.168;20.878;2023-08-30T10:30:06;10.30;;;5.30;;
50681;SDS011;36779;52.168;20.878;2023-08-30T10:32:41;12.30;;;5.40;;
50681;SDS011;36779;52.168;20.878;2023-08-30T10:35:17;9.60;;;4.10;;
50681;SDS011;36779;52.168;20.878;2023-08-30T10:37:55;7.00;;;3.70;;
50681;SDS011;36779;52.168;20.878;2023-08-30T10:40:29;10.20;;;5.20;;
50681;SDS011;36779;52.168;20.878;2023-08-30T10:43:04;7.60;;;4.10;;
50681;SDS011;36779;52.168;20.878;2023-08-30T10:45:37;7.80;;;3.80;;
50681;SDS011;36779;52.168;20.878;2023-08-30T10:48:13;6.00;;;3.20;;
50681;SDS011;36779;52.168;20.878;2023-08-30T10:50:47;5.60;;;3.30;;
50681;SDS011;36779;52.168;20.878;2023-08-30T10:53:20;6.30;;;3.60;;
50681;SDS011;36779;52.168;20.878;2023-08-30T10:56:04;5.90;;;3.60;;
50681;SDS011;36779;52.168;20.878;2023-08-30T10:58:40;6.70;;;3.20;;
50681;SDS011;36779;52.168;20.878;2023-08-30T11:01:13;6.50;;;3.80;;
50681;SDS011;36779;52.168;20.878;2023-08-30T11:03:46;6.40;;;3.70;;
50681;SDS011;36779;52.168;20.878;2023-08-30T11:06:22;6.90;;;4.20;;
50681;SDS011;36779;52.168;20.878;2023-08-30T11:08:54;6.60;;;3.90;;
50681;SDS011;36779;52.168;20.878;2023-08-30T11:11:27;7.40;;;3.50;;
50681;SDS011;36779;52.168;20.878;2023-08-30T11:14:05;8.50;;;4.50;;
50681;SDS011;36779;52.168;20.878;2023-08-30T11:16:38;5.20;;;3.60;;
50681;SDS011;36779;52.168;20.878;2023-08-30T11:19:18;7.50;;;3.90;;
50681;SDS011;36779;52.168;20.878;2023-08-30T11:21:56;7.40;;;4.00;;
50681;SDS011;36779;52.168;20.878;2023-08-30T11:24:30;7.00;;;3.80;;
50681;SDS011;36779;52.168;20.878;2023-08-30T11:27:04;5.50;;;3.00;;
50681;SDS011;36779;52.168;20.878;2023-08-30T11:29:40;10.30;;;4.30;;
50681;SDS011;36779;52.168;20.878;2023-08-30T11:32:13;7.00;;;3.30;;
50681;SDS011;36779;52.168;20.878;2023-08-30T11:34:56;6.40;;;3.80;;
50681;SDS011;36779;52.168;20.878;2023-08-30T11:37:30;6.90;;;4.70;;
50681;SDS011;36779;52.168;20.878;2023-08-30T11:40:06;6.00;;;3.40;;
50681;SDS011;36779;52.168;20.878;2023-08-30T11:42:42;7.60;;;4.00;;
50681;SDS011;36779;52.168;20.878;2023-08-30T11:45:15;5.70;;;3.40;;
50681;SDS011;36779;52.168;20.878;2023-08-30T11:47:48;6.10;;;3.70;;
50681;SDS011;36779;52.168;20.878;2023-08-30T11:50:22;6.40;;;3.80;;
50681;SDS011;36779;52.168;20.878;2023-08-30T11:53:01;6.20;;;3.50;;
50681;SDS011;36779;52.168;20.878;2023-08-30T11:55:36;6.20;;;3.80;;
50681;SDS011;36779;52.168;20.878;2023-08-30T11:58:21;7.20;;;3.80;;
50681;SDS011;36779;52.168;20.878;2023-08-30T12:00:54;8.00;;;4.60;;
50681;SDS011;36779;52.168;20.878;2023-08-30T12:03:35;5.80;;;4.10;;
50681;SDS011;36779;52.168;20.878;2023-08-30T12:06:14;7.10;;;4.00;;
50681;SDS011;36779;52.168;20.878;2023-08-30T12:09:00;7.60;;;4.90;;
50681;SDS011;36779;52.168;20.878;2023-08-30T12:11:40;5.60;;;3.70;;
50681;SDS011;36779;52.168;20.878;2023-08-30T12:14:33;6.10;;;3.80;;
50681;SDS011;36779;52.168;20.878;2023-08-30T12:17:09;7.20;;;3.50;;
50681;SDS011;36779;52.168;20.878;2023-08-30T12:19:46;7.10;;;3.80;;
50681;SDS011;36779;52.168;20.878;2023-08-30T12:22:45;8.20;;;4.10;;
50681;SDS011;36779;52.168;20.878;2023-08-30T12:25:27;6.00;;;3.90;;
50681;SDS011;36779;52.168;20.878;2023-08-30T12:28:19;7.50;;;4.00;;
50681;SDS011;36779;52.168;20.878;2023-08-30T12:30:59;8.20;;;3.50;;
50681;SDS011;36779;52.168;20.878;2023-08-30T12:33:36;7.10;;;3.90;;
50681;SDS011;36779;52.168;20.878;2023-08-30T12:36:15;7.10;;;4.00;;
50681;SDS011;36779;52.168;20.878;2023-08-30T12:38:56;7.60;;;3.80;;
50681;SDS011;36779;52.168;20.878;2023-08-30T12:41:44;7.20;;;2.80;;
50681;SDS011;36779;52.168;20.878;2023-08-30T12:44:20;7.00;;;3.20;;
50681;SDS011;36779;52.168;20.878;2023-08-30T12:47:00;5.30;;;3.80;;
50681;SDS011;36779;52.168;20.878;2023-08-30T12:49:37;8.60;;;3.70;;
50681;SDS011;36779;52.168;20.878;2023-08-30T12:52:19;5.40;;;3.30;;
50681;SDS011;36779;52.168;20.878;2023-08-30T12:54:53;5.50;;;3.20;;
50681;SDS011;36779;52.168;20.878;2023-08-30T13:00:13;7.40;;;3.30;;
50681;SDS011;36779;52.168;20.878;2023-08-30T13:02:52;7.90;;;3.80;;
50681;SDS011;36779;52.168;20.878;2023-08-30T13:05:43;5.30;;;2.80;;
50681;SDS011;36779;52.168;20.878;2023-08-30T13:08:21;9.50;;;3.60;;
50681;SDS011;36779;52.168;20.878;2023-08-30T13:10:58;6.10;;;3.40;;
50681;SDS011;36779;52.168;20.878;2023-08-30T13:13:36;7.20;;;3.40;;
50681;SDS011;36779;52.168;20.878;2023-08-30T13:16:17;5.80;;;3.10;;
50681;SDS011;36779;52.168;20.878;2023-08-30T13:18:52;4.90;;;3.00;;
50681;SDS011;36779;52.168;20.878;2023-08-30T13:21:29;6.50;;;3.80;;
50681;SDS011;36779;52.168;20.878;2023-08-30T13:24:19;6.10;;;3.50;;
50681;SDS011;36779;52.168;20.878;2023-08-30T13:26:55;4.60;;;3.00;;
50681;SDS011;36779;52.168;20.878;2023-08-30T13:29:53;8.30;;;3.70;;
50681;SDS011;36779;52.168;20.878;2023-08-30T13:32:32;6.00;;;3.30;;
50681;SDS011;36779;52.168;20.878;2023-08-30T13:35:08;9.90;;;3.60;;
50681;SDS011;36779;52.168;20.878;2023-08-30T13:37:41;5.10;;;3.00;;
50681;SDS011;36779;52.168;20.878;2023-08-30T13:40:16;6.30;;;3.30;;
50681;SDS011;36779;52.168;20.878;2023-08-30T13:42:48;5.50;;;3.50;;
50681;SDS011;36779;52.168;20.878;2023-08-30T13:45:21;6.70;;;3.50;;
50681;SDS011;36779;52.168;20.878;2023-08-30T13:47:53;5.00;;;3.10;;
50681;SDS011;36779;52.168;20.878;2023-08-30T13:50:25;5.00;;;3.20;;
50681;SDS011;36779;52.168;20.878;2023-08-30T13:53:02;6.60;;;3.00;;
50681;SDS011;36779;52.168;20.878;2023-08-30T13:55:36;5.60;;;3.10;;
50681;SDS011;36779;52.168;20.878;2023-08-30T13:58:08;4.80;;;2.80;;
50681;SDS011;36779;52.168;20.878;2023-08-30T14:00:43;4.70;;;2.60;;
50681;SDS011;36779;52.168;20.878;2023-08-30T14:03:16;4.80;;;2.90;;
50681;SDS011;36779;52.168;20.878;2023-08-30T14:05:48;5.40;;;3.00;;
50681;SDS011;36779;52.168;20.878;2023-08-30T14:08:21;5.00;;;2.20;;
50681;SDS011;36779;52.168;20.878;2023-08-30T14:10:54;3.40;;;2.60;;
50681;SDS011;36779;52.168;20.878;2023-08-30T14:13:26;4.80;;;2.10;;
50681;SDS011;36779;52.168;20.878;2023-08-30T14:16:03;3.30;;;2.20;;
50681;SDS011;36779;52.168;20.878;2023-08-30T14:18:35;4.20;;;2.90;;
50681;SDS011;36779;52.168;20.878;2023-08-30T14:21:08;5.80;;;2.70;;
50681;SDS011;36779;52.168;20.878;2023-08-30T14:23:42;4.40;;;3.10;;
50681;SDS011;36779;52.168;20.878;2023-08-30T14:26:17;4.10;;;2.70;;
50681;SDS011;36779;52.168;20.878;2023-08-30T14:28:49;4.70;;;2.90;;
50681;SDS011;36779;52.168;20.878;2023-08-30T14:31:21;2.70;;;2.10;;
50681;SDS011;36779;52.168;20.878;2023-08-30T14:33:55;3.30;;;2.40;;
50681;SDS011;36779;52.168;20.878;2023-08-30T14:36:28;5.10;;;2.80;;
50681;SDS011;36779;52.168;20.878;2023-08-30T14:39:00;3.40;;;2.50;;
50681;SDS011;36779;52.168;20.878;2023-08-30T14:41:33;3.20;;;2.30;;
50681;SDS011;36779;52.168;20.878;2023-08-30T14:44:06;3.80;;;2.30;;
50681;SDS011;36779;52.168;20.878;2023-08-30T14:46:39;3.50;;;2.70;;
50681;SDS011;36779;52.168;20.878;2023-08-30T14:49:14;2.70;;;1.90;;
50681;SDS011;36779;52.168;20.878;2023-08-30T14:51:47;4.70;;;2.50;;
50681;SDS011;36779;52.168;20.878;2023-08-30T14:54:21;4.10;;;1.90;;
50681;SDS011;36779;52.168;20.878;2023-08-30T14:56:54;3.70;;;2.50;;
50681;SDS011;36779;52.168;20.878;2023-08-30T14:59:26;3.30;;;2.10;;
50681;SDS011;36779;52.168;20.878;2023-08-30T15:01:59;5.00;;;2.80;;
50681;SDS011;36779;52.168;20.878;2023-08-30T15:04:33;4.20;;;2.50;;
50681;SDS011;36779;52.168;20.878;2023-08-30T15:07:06;4.90;;;2.50;;
50681;SDS011;36779;52.168;20.878;2023-08-30T15:09:38;5.10;;;2.10;;
50681;SDS011;36779;52.168;20.878;2023-08-30T15:12:13;6.90;;;1.70;;
50681;SDS011;36779;52.168;20.878;2023-08-30T15:14:45;1.70;;;1.50;;